Time;durP1;ratioP1;P1;durP2;ratioP2;P2;SDS_P1;SDS_P2;PMS_P1;PMS_P2;Temp;Humidity;BMP_temperature;BMP_pressure;BME280_temperature;BME280_humidity;BME280_pressure;Samples;Min_cycle;Max_cycle;Signal;HPM_P1;HPM_P2
2022/07/09 00:01:02;;;;;;;;;;;;;;;21.46;86.56;98920.84;5119052;28;19932;-62
2022/07/09 00:03:28;;;;;;;;;;;;;;;21.48;86.37;98918.59;5121332;28;19928;-61
2022/07/09 00:05:55;;;;;;;;;;;;;;;21.42;87.03;98910.88;5121277;28;19966;-61
2022/07/09 00:08:21;;;;;;;;;;;;;;;21.44;86.90;98917.63;5117780;28;19962;-61
2022/07/09 00:10:49;;;;;;;;;;;;;;;21.37;87.12;98917.25;5117843;28;19995;-62
2022/07/09 00:13:15;;;;;;;;;;;;;;;21.41;87.22;98923.69;5120601;28;19992;-62
2022/07/09 00:15:42;;;;;;;;;;;;;;;21.38;87.50;98918.06;5121440;28;19942;-63
2022/07/09 00:18:09;;;;;;;;;;;;;;;21.39;87.11;98915.03;5120609;28;19928;-62
2022/07/09 00:20:35;;;;;;;;;;;;;;;21.41;87.10;98910.09;5130582;27;19930;-62
2022/07/09 00:23:01;;;;;;;;;;;;;;;21.41;87.20;98910.09;5127857;27;19927;-61
2022/07/09 00:25:28;;;;;;;;;;;;;;;21.35;87.35;98914.03;5125008;28;19958;-62
2022/07/09 00:27:55;;;;;;;;;;;;;;;21.37;87.39;98911.81;5125033;28;19924;-61
2022/07/09 00:30:22;;;;;;;;;;;;;;;21.35;87.84;98918.69;5113036;28;19943;-61
2022/07/09 00:32:48;;;;;;;;;;;;;;;21.36;87.30;98917.56;5112657;28;19932;-63
2022/07/09 00:35:14;;;;;;;;;;;;;;;21.35;87.28;98907.81;5112762;28;19995;-62
2022/07/09 00:37:41;;;;;;;;;;;;;;;21.36;86.85;98912.13;5112803;28;20600;-61
2022/07/09 00:40:09;;;;;;;;;;;;;;;21.33;87.41;98912.75;5112725;28;19931;-62
2022/07/09 00:42:36;;;;;;;;;;;;;;;21.32;86.99;98897.56;5112584;28;19977;-62
2022/07/09 00:45:04;;;;;;;;;;;;;;;21.28;86.33;98910.97;5112492;28;19937;-62
2022/07/09 00:47:30;;;;;;;;;;;;;;;21.24;85.96;98901.81;5112589;28;19927;-61
2022/07/09 00:49:57;;;;;;;;;;;;;;;21.26;85.64;98912.38;5112363;28;19942;-61
2022/07/09 00:52:23;;;;;;;;;;;;;;;21.12;85.27;98909.72;5135499;27;19924;-62
2022/07/09 00:54:51;;;;;;;;;;;;;;;21.22;85.04;98908.66;5120858;28;19931;-61
2022/07/09 00:57:19;;;;;;;;;;;;;;;21.20;85.63;98922.53;5123835;28;19924;-62
2022/07/09 00:59:45;;;;;;;;;;;;;;;21.16;85.61;98913.44;5124156;28;20606;-61
2022/07/09 01:02:13;;;;;;;;;;;;;;;21.11;85.62;98910.81;5121806;28;19980;-61
2022/07/09 01:04:40;;;;;;;;;;;;;;;21.15;84.37;98909.09;5120515;28;19967;-63
2022/07/09 01:07:07;;;;;;;;;;;;;;;21.15;84.81;98898.22;5121717;28;19924;-62
2022/07/09 01:09:35;;;;;;;;;;;;;;;21.18;84.66;98903.03;5123218;28;21465;-61
2022/07/09 01:12:01;;;;;;;;;;;;;;;21.21;84.54;98905.16;5123009;28;19935;-61
2022/07/09 01:14:28;;;;;;;;;;;;;;;21.18;84.66;98896.81;5119962;28;20022;-61
2022/07/09 01:16:58;;;;;;;;;;;;;;;21.12;85.17;98900.75;5119999;28;19935;-61
2022/07/09 01:19:26;;;;;;;;;;;;;;;20.61;87.55;98898.34;5120200;28;19924;-61
2022/07/09 01:21:54;;;;;;;;;;;;;;;20.52;89.87;98898.25;5135329;27;19931;-62
2022/07/09 01:24:20;;;;;;;;;;;;;;;20.68;88.24;98891.38;5119923;28;19924;-63
2022/07/09 01:26:46;;;;;;;;;;;;;;;20.78;86.95;98891.16;5119627;28;19924;-61
2022/07/09 01:29:13;;;;;;;;;;;;;;;20.87;86.29;98897.47;5122314;28;19959;-62
2022/07/09 01:31:39;;;;;;;;;;;;;;;20.90;84.82;98893.34;5123204;28;20007;-61
2022/07/09 01:34:06;;;;;;;;;;;;;;;20.91;83.86;98889.53;5121607;28;19970;-62
2022/07/09 01:36:33;;;;;;;;;;;;;;;20.95;85.36;98890.53;5119626;28;19992;-63
2022/07/09 01:39:01;;;;;;;;;;;;;;;20.97;85.10;98885.59;5120419;28;20049;-61
2022/07/09 01:41:27;;;;;;;;;;;;;;;21.00;84.67;98888.50;5123082;28;19931;-62
2022/07/09 01:43:53;;;;;;;;;;;;;;;20.98;85.19;98887.22;5123294;28;20378;-62
2022/07/09 01:46:20;;;;;;;;;;;;;;;20.97;84.57;98880.97;5119823;28;19964;-61
2022/07/09 01:48:46;;;;;;;;;;;;;;;20.96;84.93;98881.25;5119525;28;19928;-61
2022/07/09 01:51:13;;;;;;;;;;;;;;;20.96;84.99;98873.13;5136752;27;19965;-62
2022/07/09 01:53:40;;;;;;;;;;;;;;;20.97;84.34;98872.81;5122873;28;19959;-61
2022/07/09 01:56:09;;;;;;;;;;;;;;;20.94;83.45;98873.44;5121442;28;19924;-61
2022/07/09 01:58:36;;;;;;;;;;;;;;;20.98;84.35;98868.19;5119525;28;19955;-62
2022/07/09 02:01:03;;;;;;;;;;;;;;;20.95;84.73;98874.25;5120369;28;19924;-62
2022/07/09 02:03:29;;;;;;;;;;;;;;;20.94;84.84;98869.91;5122995;28;19963;-62
2022/07/09 02:05:55;;;;;;;;;;;;;;;20.97;83.90;98872.00;5122848;28;19931;-63
2022/07/09 02:08:22;;;;;;;;;;;;;;;20.97;83.32;98872.00;5119241;28;19935;-62
2022/07/09 02:10:48;;;;;;;;;;;;;;;20.94;83.96;98859.84;5119249;28;19950;-61
2022/07/09 02:13:17;;;;;;;;;;;;;;;20.88;84.24;98871.13;5122207;28;19984;-62
2022/07/09 02:15:43;;;;;;;;;;;;;;;20.70;86.13;98869.38;5122748;28;19934;-62
2022/07/09 02:18:10;;;;;;;;;;;;;;;20.73;84.39;98868.78;5120893;28;20010;-61
2022/07/09 02:20:36;;;;;;;;;;;;;;;20.77;85.05;98864.31;5128497;27;19923;-61
2022/07/09 02:23:02;;;;;;;;;;;;;;;20.79;84.13;98856.69;5125308;27;19997;-62
2022/07/09 02:25:29;;;;;;;;;;;;;;;20.78;85.42;98861.31;5122552;28;19923;-61
2022/07/09 02:27:56;;;;;;;;;;;;;;;20.82;85.09;98877.78;5122620;28;19977;-63
2022/07/09 02:30:23;;;;;;;;;;;;;;;20.83;84.84;98863.91;5119220;28;19959;-60
2022/07/09 02:32:50;;;;;;;;;;;;;;;20.84;85.23;98859.28;5119042;28;19958;-62
2022/07/09 02:35:16;;;;;;;;;;;;;;;20.81;83.71;98865.31;5122082;28;19923;-61
2022/07/09 02:37:43;;;;;;;;;;;;;;;20.79;84.85;98864.84;5122585;28;19924;-61
2022/07/09 02:40:10;;;;;;;;;;;;;;;20.84;84.55;98862.81;5120325;28;19927;-62
2022/07/09 02:42:37;;;;;;;;;;;;;;;20.76;84.93;98863.53;5118556;28;19924;-61
2022/07/09 02:45:03;;;;;;;;;;;;;;;20.76;84.87;98866.25;5120019;28;19973;-61
2022/07/09 02:47:31;;;;;;;;;;;;;;;20.74;84.21;98867.63;5122352;28;19987;-62
2022/07/09 02:49:57;;;;;;;;;;;;;;;20.46;86.82;98870.41;5122215;28;19927;-62
2022/07/09 02:52:23;;;;;;;;;;;;;;;20.43;87.09;98864.78;5134016;27;19924;-61
2022/07/09 02:54:50;;;;;;;;;;;;;;;20.32;87.59;98872.34;5118788;28;19924;-61
2022/07/09 02:57:16;;;;;;;;;;;;;;;20.32;88.37;98875.06;5121856;28;20396;-61
2022/07/09 02:59:42;;;;;;;;;;;;;;;20.35;88.14;98874.47;5122491;28;19937;-61
2022/07/09 03:02:09;;;;;;;;;;;;;;;20.38;88.15;98878.47;5120629;28;19924;-61
2022/07/09 03:04:36;;;;;;;;;;;;;;;20.33;88.64;98873.94;5118892;28;20012;-61
2022/07/09 03:07:03;;;;;;;;;;;;;;;20.17;90.70;98864.50;5119408;28;19932;-61
2022/07/09 03:09:29;;;;;;;;;;;;;;;20.03;91.84;98871.81;5122315;28;19998;-61
2022/07/09 03:11:56;;;;;;;;;;;;;;;19.88;92.96;98872.94;5122261;28;19990;-61
2022/07/09 03:14:22;;;;;;;;;;;;;;;19.86;93.95;98874.34;5118481;28;19935;-61
2022/07/09 03:16:48;;;;;;;;;;;;;;;19.83;93.54;98875.75;5118616;28;19924;-61
2022/07/09 03:19:15;;;;;;;;;;;;;;;19.94;91.48;98879.03;5121333;28;19984;-61
2022/07/09 03:21:42;;;;;;;;;;;;;;;20.06;89.26;98875.84;5136578;27;19944;-62
2022/07/09 03:24:09;;;;;;;;;;;;;;;19.94;90.75;98873.63;5119966;28;19959;-61
2022/07/09 03:26:35;;;;;;;;;;;;;;;19.92;91.24;98875.84;5118410;28;19924;-61
2022/07/09 03:29:02;;;;;;;;;;;;;;;19.96;91.26;98865.22;5119397;28;19998;-61
2022/07/09 03:31:28;;;;;;;;;;;;;;;20.13;88.27;98865.41;5121976;28;19924;-61
2022/07/09 03:33:54;;;;;;;;;;;;;;;20.22;87.23;98875.25;5121962;28;19924;-61
2022/07/09 03:36:21;;;;;;;;;;;;;;;20.30;87.66;98873.78;5110367;28;19928;-61
2022/07/09 03:38:48;;;;;;;;;;;;;;;20.23;88.69;98870.63;5109977;28;19930;-61
2022/07/09 03:41:15;;;;;;;;;;;;;;;19.97;90.26;98875.75;5109879;28;19924;-61
2022/07/09 03:43:41;;;;;;;;;;;;;;;19.59;92.53;98874.28;5109776;28;19920;-62
2022/07/09 03:46:08;;;;;;;;;;;;;;;19.43;93.68;98875.66;5109667;28;19935;-61
2022/07/09 03:48:34;;;;;;;;;;;;;;;19.79;90.65;98872.00;5109722;28;19923;-62
2022/07/09 03:51:00;;;;;;;;;;;;;;;19.79;91.32;98877.44;5125156;28;19923;-62
2022/07/09 03:53:27;;;;;;;;;;;;;;;19.88;91.19;98881.06;5123175;28;19928;-62
2022/07/09 03:55:55;;;;;;;;;;;;;;;20.05;88.44;98885.91;5125607;28;19938;-62
2022/07/09 03:58:21;;;;;;;;;;;;;;;20.15;88.46;98877.53;5113753;28;20043;-61
2022/07/09 04:00:47;;;;;;;;;;;;;;;20.23;86.67;98887.72;5113355;28;20000;-61
2022/07/09 04:03:14;;;;;;;;;;;;;;;19.71;91.57;98886.25;5113731;28;19936;-61
2022/07/09 04:05:41;;;;;;;;;;;;;;;19.27;94.75;98884.00;5113429;28;19955;-62
2022/07/09 04:08:07;;;;;;;;;;;;;;;19.19;95.47;98878.44;5113318;28;19924;-61
2022/07/09 04:10:34;;;;;;;;;;;;;;;19.11;96.83;98885.34;5113145;28;19935;-62
2022/07/09 04:13:01;;;;;;;;;;;;;;;19.50;93.33;98870.63;5113227;28;19924;-62
2022/07/09 04:15:28;;;;;;;;;;;;;;;19.76;90.58;98861.78;5113479;28;19954;-62
2022/07/09 04:17:54;;;;;;;;;;;;;;;19.46;93.99;98880.47;5113113;28;19928;-60
2022/07/09 04:20:21;;;;;;;;;;;;;;;19.57;93.70;98869.16;5126586;27;19971;-61
2022/07/09 04:22:48;;;;;;;;;;;;;;;19.87;90.33;98873.22;5130793;27;19923;-63
2022/07/09 04:25:14;;;;;;;;;;;;;;;20.03;88.44;98871.81;5124153;28;19924;-62
2022/07/09 04:27:40;;;;;;;;;;;;;;;19.94;90.57;98881.75;5125201;28;19938;-61
2022/07/09 04:30:09;;;;;;;;;;;;;;;19.72;92.20;98881.63;5123283;28;19924;-63
2022/07/09 04:32:36;;;;;;;;;;;;;;;19.71;92.87;98869.97;5121533;28;20432;-61
2022/07/09 04:35:02;;;;;;;;;;;;;;;19.85;90.88;98878.94;5122167;28;19935;-62
2022/07/09 04:37:28;;;;;;;;;;;;;;;19.77;91.77;98881.56;5124741;28;19924;-62
2022/07/09 04:39:55;;;;;;;;;;;;;;;19.91;91.05;98876.94;5124852;28;19924;-62
2022/07/09 04:42:21;;;;;;;;;;;;;;;20.01;90.07;98879.47;5112964;28;19935;-61
2022/07/09 04:44:48;;;;;;;;;;;;;;;20.10;88.33;98883.06;5112552;28;19928;-61
2022/07/09 04:47:16;;;;;;;;;;;;;;;20.17;88.85;98886.19;5112675;28;19924;-62
2022/07/09 04:49:42;;;;;;;;;;;;;;;20.03;91.39;98874.53;5112688;28;19924;-62
2022/07/09 04:52:08;;;;;;;;;;;;;;;20.02;90.16;98880.28;5135753;27;19923;-62
2022/07/09 04:54:35;;;;;;;;;;;;;;;20.12;89.52;98875.44;5121014;28;20656;-62
2022/07/09 04:57:01;;;;;;;;;;;;;;;20.24;90.08;98872.25;5121888;28;19970;-61
2022/07/09 04:59:27;;;;;;;;;;;;;;;20.15;89.96;98880.25;5124271;28;19924;-62
2022/07/09 05:01:54;;;;;;;;;;;;;;;20.05;91.19;98872.34;5124463;28;20453;-61
2022/07/09 05:04:22;;;;;;;;;;;;;;;20.17;89.99;98880.78;5120557;28;19989;-61
2022/07/09 05:06:48;;;;;;;;;;;;;;;20.16;91.24;98881.06;5120621;28;19956;-61
2022/07/09 05:09:14;;;;;;;;;;;;;;;19.90;92.21;98878.84;5123569;28;19924;-62
2022/07/09 05:11:41;;;;;;;;;;;;;;;19.81;94.52;98872.50;5123901;28;19938;-60
2022/07/09 05:14:07;;;;;;;;;;;;;;;19.97;92.38;98877.63;5122564;28;20422;-60
2022/07/09 05:16:34;;;;;;;;;;;;;;;20.08;91.68;98873.66;5120699;28;19924;-62
2022/07/09 05:19:00;;;;;;;;;;;;;;;20.23;90.71;98873.34;5121344;28;19924;-61
2022/07/09 05:21:28;;;;;;;;;;;;;;;20.30;90.02;98866.41;5138955;27;19923;-62
2022/07/09 05:23:54;;;;;;;;;;;;;;;20.36;89.56;98869.84;5124138;28;19984;-61
2022/07/09 05:26:20;;;;;;;;;;;;;;;20.46;88.68;98866.91;5120687;28;19987;-61
2022/07/09 05:28:47;;;;;;;;;;;;;;;20.53;88.54;98870.00;5120242;28;20022;-61
2022/07/09 05:31:13;;;;;;;;;;;;;;;20.54;88.32;98863.47;5123026;28;19938;-61
2022/07/09 05:33:39;;;;;;;;;;;;;;;20.53;88.20;98869.19;5123786;28;19974;-61
2022/07/09 05:36:06;;;;;;;;;;;;;;;20.37;89.17;98864.09;5122248;28;19923;-61
2022/07/09 05:38:34;;;;;;;;;;;;;;;20.28;89.94;98863.22;5120287;28;19924;-62
2022/07/09 05:41:00;;;;;;;;;;;;;;;20.26;89.90;98870.84;5120885;28;19935;-63
2022/07/09 05:43:26;;;;;;;;;;;;;;;20.21;89.65;98868.19;5123595;28;19950;-61
2022/07/09 05:45:53;;;;;;;;;;;;;;;20.35;89.21;98865.50;5123518;28;20445;-62
2022/07/09 05:48:19;;;;;;;;;;;;;;;20.40;88.38;98868.91;5120105;28;19924;-62
2022/07/09 05:50:45;;;;;;;;;;;;;;;20.44;87.91;98869.13;5131882;27;19927;-62
2022/07/09 05:53:12;;;;;;;;;;;;;;;20.55;87.64;98865.06;5124621;27;19928;-62
2022/07/09 05:55:39;;;;;;;;;;;;;;;20.63;86.77;98864.38;5123187;28;19924;-61
2022/07/09 05:58:06;;;;;;;;;;;;;;;20.70;86.90;98853.91;5121954;28;19945;-62
2022/07/09 06:00:32;;;;;;;;;;;;;;;20.61;86.91;98860.34;5119668;28;19955;-61
2022/07/09 06:02:58;;;;;;;;;;;;;;;20.37;88.58;98866.00;5120000;28;20361;-61
2022/07/09 06:05:25;;;;;;;;;;;;;;;20.34;89.54;98872.03;5123265;28;19959;-61
2022/07/09 06:07:51;;;;;;;;;;;;;;;20.36;88.97;98870.63;5123185;28;19959;-62
2022/07/09 06:10:18;;;;;;;;;;;;;;;20.46;88.47;98864.19;5120098;28;19931;-62
2022/07/09 06:12:45;;;;;;;;;;;;;;;20.65;87.64;98866.75;5119624;28;19991;-62
2022/07/09 06:15:12;;;;;;;;;;;;;;;20.63;87.26;98860.84;5121377;28;19924;-63
2022/07/09 06:17:38;;;;;;;;;;;;;;;20.71;86.73;98858.19;5123041;28;19924;-61
2022/07/09 06:20:05;;;;;;;;;;;;;;;20.84;85.04;98859.28;5122123;28;19931;-62
2022/07/09 06:22:31;;;;;;;;;;;;;;;20.90;85.39;98855.34;5133566;27;19942;-62
2022/07/09 06:24:58;;;;;;;;;;;;;;;20.90;85.38;98860.75;5119716;28;19924;-62
2022/07/09 06:27:24;;;;;;;;;;;;;;;20.71;89.07;98860.91;5122785;28;19931;-61
2022/07/09 06:29:52;;;;;;;;;;;;;;;20.69;86.93;98859.63;5122889;28;19967;-62
2022/07/09 06:32:19;;;;;;;;;;;;;;;20.77;88.17;98856.16;5119557;28;19924;-62
2022/07/09 06:34:45;;;;;;;;;;;;;;;20.81;87.65;98840.88;5119093;28;19931;-61
2022/07/09 06:37:11;;;;;;;;;;;;;;;21.08;86.69;98851.63;5121230;28;19924;-62
2022/07/09 06:39:48;;;;;;;;;;;;;;;21.12;88.68;98851.84;5122721;28;19950;-62
2022/07/09 06:42:16;;;;;;;;;;;;;;;21.15;88.39;98849.34;5120172;28;19923;-61
2022/07/09 06:44:42;;;;;;;;;;;;;;;21.44;86.88;98844.25;5118827;28;19990;-63
2022/07/09 06:47:10;;;;;;;;;;;;;;;21.59;86.54;98840.34;5120775;28;19924;-62
2022/07/09 06:49:37;;;;;;;;;;;;;;;21.62;85.91;98842.44;5122299;28;19931;-61
2022/07/09 06:52:04;;;;;;;;;;;;;;;21.66;86.31;98848.03;5136318;27;19937;-62
2022/07/09 06:54:30;;;;;;;;;;;;;;;21.70;85.97;98838.13;5118645;28;19920;-61
2022/07/09 06:56:57;;;;;;;;;;;;;;;21.75;85.54;98838.81;5118760;28;19956;-61
2022/07/09 06:59:23;;;;;;;;;;;;;;;21.87;84.21;98849.91;5122446;28;19924;-62
2022/07/09 07:01:50;;;;;;;;;;;;;;;22.06;82.50;98839.59;5122039;28;19928;-62
2022/07/09 07:04:19;;;;;;;;;;;;;;;22.27;81.97;98836.28;5119307;28;19928;-62
2022/07/09 07:06:46;;;;;;;;;;;;;;;22.47;81.80;98836.50;5118356;28;19959;-62
2022/07/09 07:09:13;;;;;;;;;;;;;;;22.51;81.45;98833.94;5120590;28;19934;-63
2022/07/09 07:11:39;;;;;;;;;;;;;;;22.47;81.63;98830.25;5121991;28;19980;-61
2022/07/09 07:14:06;;;;;;;;;;;;;;;22.58;82.36;98837.81;5120667;28;19935;-61
2022/07/09 07:16:32;;;;;;;;;;;;;;;22.44;83.55;98831.69;5118308;28;19935;-63
2022/07/09 07:18:59;;;;;;;;;;;;;;;22.63;81.66;98828.66;5118758;28;19924;-61
2022/07/09 07:21:26;;;;;;;;;;;;;;;22.83;81.70;98828.06;5136784;27;19930;-62
2022/07/09 07:23:53;;;;;;;;;;;;;;;22.96;81.77;98824.34;5121675;28;19924;-63
2022/07/09 07:26:19;;;;;;;;;;;;;;;23.11;81.91;98823.09;5118643;28;19924;-62
2022/07/09 07:28:46;;;;;;;;;;;;;;;23.15;81.67;98828.69;5122342;28;19966;-62
2022/07/09 07:31:12;;;;;;;;;;;;;;;23.27;80.95;98829.63;5124731;28;19989;-62
2022/07/09 07:33:39;;;;;;;;;;;;;;;23.26;79.18;98833.47;5125986;28;19924;-62
2022/07/09 07:36:06;;;;;;;;;;;;;;;23.34;78.96;98823.66;5124841;28;19919;-63
2022/07/09 07:38:34;;;;;;;;;;;;;;;23.18;78.55;98826.09;5122228;28;19981;-62
2022/07/09 07:41:00;;;;;;;;;;;;;;;23.25;80.88;98825.63;5122904;28;19924;-62
2022/07/09 07:43:27;;;;;;;;;;;;;;;23.51;79.87;98824.47;5107607;28;19952;-62
2022/07/09 07:45:53;;;;;;;;;;;;;;;23.63;78.55;98830.06;5125696;28;19981;-62
2022/07/09 07:48:20;;;;;;;;;;;;;;;23.72;77.32;98823.75;5122310;28;19924;-63
2022/07/09 07:50:46;;;;;;;;;;;;;;;23.82;76.33;98815.22;5134309;27;19929;-62
2022/07/09 07:53:12;;;;;;;;;;;;;;;23.87;76.00;98815.84;5126911;27;19956;-62
2022/07/09 07:55:40;;;;;;;;;;;;;;;23.75;71.97;98813.00;5125413;28;19935;-62
2022/07/09 07:58:06;;;;;;;;;;;;;;;23.47;72.69;98815.34;5124095;28;19924;-61
2022/07/09 08:00:33;;;;;;;;;;;;;;;23.39;71.83;98818.06;5121859;28;19931;-63
2022/07/09 08:02:59;;;;;;;;;;;;;;;23.13;72.97;98812.66;5122307;28;19942;-62
2022/07/09 08:05:26;;;;;;;;;;;;;;;23.09;76.76;98812.50;5107228;28;19920;-61
2022/07/09 08:07:52;;;;;;;;;;;;;;;23.32;76.43;98817.75;5125088;28;19955;-62
2022/07/09 08:10:19;;;;;;;;;;;;;;;23.42;75.52;98817.44;5121818;28;19927;-62
2022/07/09 08:12:46;;;;;;;;;;;;;;;23.51;73.34;98808.13;5121759;28;19962;-63
2022/07/09 08:15:13;;;;;;;;;;;;;;;23.31;74.47;98803.31;5124127;28;19946;-62
2022/07/09 08:17:40;;;;;;;;;;;;;;;23.13;74.77;98809.94;5125255;28;19928;-63
2022/07/09 08:20:07;;;;;;;;;;;;;;;23.11;75.43;98809.47;5124776;27;19992;-61
2022/07/09 08:22:34;;;;;;;;;;;;;;;23.07;76.46;98806.59;5135216;27;19946;-62
2022/07/09 08:25:00;;;;;;;;;;;;;;;22.97;73.44;98806.09;5122205;28;19947;-62
2022/07/09 08:27:26;;;;;;;;;;;;;;;22.86;75.59;98804.84;5125537;28;19927;-61
2022/07/09 08:29:54;;;;;;;;;;;;;;;22.95;74.80;98808.34;5125064;28;19935;-62
2022/07/09 08:32:21;;;;;;;;;;;;;;;22.97;74.71;98806.09;5121587;28;19971;-61
2022/07/09 08:34:47;;;;;;;;;;;;;;;23.00;74.49;98800.00;5121442;28;20483;-61
2022/07/09 08:37:13;;;;;;;;;;;;;;;23.09;74.70;98800.78;5123761;28;19924;-62
2022/07/09 08:39:40;;;;;;;;;;;;;;;23.07;74.51;98792.16;5123854;28;19963;-62
2022/07/09 08:42:09;;;;;;;;;;;;;;;23.00;75.35;98800.81;5123469;28;19949;-62
2022/07/09 08:44:38;;;;;;;;;;;;;;;23.03;74.56;98802.09;5121161;28;19924;-63
2022/07/09 08:47:06;;;;;;;;;;;;;;;23.11;74.66;98813.00;5122214;28;19935;-61
2022/07/09 08:49:33;;;;;;;;;;;;;;;23.07;74.81;98797.59;5124796;28;19954;-61
2022/07/09 08:52:00;;;;;;;;;;;;;;;23.08;74.38;98794.56;5121279;28;19963;-62
2022/07/09 08:54:26;;;;;;;;;;;;;;;23.19;74.74;98792.28;5121161;28;19924;-62
2022/07/09 08:56:53;;;;;;;;;;;;;;;23.06;75.75;98790.53;5120717;28;19950;-61
2022/07/09 08:59:19;;;;;;;;;;;;;;;22.97;76.16;98784.31;5124200;28;19935;-61
2022/07/09 09:01:46;;;;;;;;;;;;;;;22.99;77.34;98784.81;5124026;28;20027;-62
2022/07/09 09:04:14;;;;;;;;;;;;;;;23.07;76.59;98794.88;5121945;28;19928;-61
2022/07/09 09:06:41;;;;;;;;;;;;;;;23.15;77.63;98788.59;5120351;28;19964;-61
2022/07/09 09:09:08;;;;;;;;;;;;;;;23.13;79.44;98786.22;5121893;28;19981;-62
2022/07/09 09:11:36;;;;;;;;;;;;;;;23.09;79.92;98787.16;5123995;28;19949;-62
2022/07/09 09:14:03;;;;;;;;;;;;;;;22.92;79.05;98789.94;5123383;28;20496;-61
2022/07/09 09:16:29;;;;;;;;;;;;;;;23.02;79.26;98789.59;5120527;28;20018;-62
2022/07/09 09:18:56;;;;;;;;;;;;;;;22.97;79.32;98787.03;5120389;28;19924;-62
2022/07/09 09:21:25;;;;;;;;;;;;;;;22.95;80.59;98797.47;5130692;27;19990;-61
2022/07/09 09:23:52;;;;;;;;;;;;;;;22.99;79.79;98788.31;5123606;28;19924;-61
2022/07/09 09:26:20;;;;;;;;;;;;;;;22.96;80.27;98785.44;5120431;28;19924;-61
2022/07/09 09:28:47;;;;;;;;;;;;;;;22.89;81.82;98782.41;5120262;28;19920;-61
2022/07/09 09:31:21;;;;;;;;;;;;;;;22.62;82.34;98769.91;5122466;28;19980;-63
2022/07/09 09:33:47;;;;;;;;;;;;;;;22.73;83.30;98770.38;5123636;28;19984;-62
2022/07/09 09:36:27;;;;;;;;;;;;;;;22.76;82.44;98767.03;5121331;28;19923;-61
2022/07/09 09:38:53;;;;;;;;;;;;;;;23.03;81.23;98764.75;5120082;28;19924;-61
2022/07/09 09:41:22;;;;;;;;;;;;;;;22.90;81.85;98760.28;5123093;28;19946;-62
2022/07/09 09:43:49;;;;;;;;;;;;;;;23.18;79.41;98757.19;5123354;28;19931;-61
2022/07/09 09:46:16;;;;;;;;;;;;;;;23.58;77.35;98750.34;5120819;28;19927;-61
2022/07/09 09:48:42;;;;;;;;;;;;;;;23.65;76.85;98751.44;5119697;28;20015;-61
2022/07/09 09:51:10;;;;;;;;;;;;;;;23.70;76.67;98750.47;5135537;27;19967;-61
2022/07/09 09:53:38;;;;;;;;;;;;;;;23.75;75.98;98754.91;5123182;28;19924;-62
2022/07/09 09:56:06;;;;;;;;;;;;;;;23.65;75.80;98742.44;5122011;28;19991;-60
2022/07/09 09:58:32;;;;;;;;;;;;;;;23.54;77.24;98730.31;5120005;28;19924;-63
2022/07/09 10:00:59;;;;;;;;;;;;;;;23.69;76.60;98728.94;5120346;28;19924;-62
2022/07/09 10:03:26;;;;;;;;;;;;;;;23.66;76.90;98724.97;5123173;28;20548;-62
2022/07/09 10:05:53;;;;;;;;;;;;;;;23.67;76.41;98727.34;5123348;28;19930;-61
2022/07/09 10:08:19;;;;;;;;;;;;;;;23.62;76.28;98724.81;5119863;28;19924;-61
2022/07/09 10:10:52;;;;;;;;;;;;;;;23.63;76.24;98712.78;5119436;28;19924;-62
2022/07/09 10:13:20;;;;;;;;;;;;;;;23.70;76.22;98715.00;5122476;28;19945;-62
2022/07/09 10:15:49;;;;;;;;;;;;;;;23.86;75.41;98701.59;5122924;28;19924;-62
2022/07/09 10:18:17;;;;;;;;;;;;;;;23.86;74.35;98704.31;5120236;28;19920;-61
2022/07/09 10:20:44;;;;;;;;;;;;;;;23.59;75.47;98711.84;5131147;27;19930;-61
2022/07/09 10:23:21;;;;;;;;;;;;;;;23.65;75.11;98718.69;5124636;27;19947;-61
2022/07/09 10:25:49;;;;;;;;;;;;;;;24.05;72.40;98707.38;5122417;28;19928;-62
2022/07/09 10:28:17;;;;;;;;;;;;;;;24.22;70.79;98711.97;5120297;28;19924;-62
2022/07/09 10:30:43;;;;;;;;;;;;;;;24.17;68.96;98707.47;5119140;28;19988;-62
2022/07/09 10:33:11;;;;;;;;;;;;;;;23.99;70.54;98708.72;5121129;28;19924;-62
2022/07/09 10:35:41;;;;;;;;;;;;;;;23.91;71.62;98715.03;5122395;28;19924;-63
2022/07/09 10:38:08;;;;;;;;;;;;;;;23.97;72.05;98706.31;5120942;28;19924;-61
2022/07/09 10:40:38;;;;;;;;;;;;;;;23.93;72.72;98701.84;5118930;28;19928;-61
2022/07/09 10:43:05;;;;;;;;;;;;;;;23.95;72.17;98700.38;5120236;28;19996;-62
2022/07/09 10:45:38;;;;;;;;;;;;;;;23.95;72.27;98694.16;5122360;28;19934;-62
2022/07/09 10:48:06;;;;;;;;;;;;;;;23.83;72.42;98700.31;5121083;28;19927;-61
2022/07/09 10:50:33;;;;;;;;;;;;;;;23.63;73.09;98699.16;5126876;27;19931;-62
2022/07/09 10:53:01;;;;;;;;;;;;;;;23.74;72.93;98693.31;5125155;27;19924;-62
2022/07/09 10:55:28;;;;;;;;;;;;;;;23.75;72.97;98686.72;5121968;28;20442;-62
2022/07/09 10:57:55;;;;;;;;;;;;;;;23.71;73.13;98688.50;5122238;28;19924;-63
2022/07/09 11:00:22;;;;;;;;;;;;;;;23.80;72.56;98686.56;5118527;28;19928;-61
2022/07/09 11:02:54;;;;;;;;;;;;;;;23.91;71.21;98687.75;5117940;28;19924;-61
2022/07/09 11:05:20;;;;;;;;;;;;;;;23.84;72.64;98688.28;5121561;28;19985;-62
2022/07/09 11:07:54;;;;;;;;;;;;;;;24.12;70.84;98694.06;5121599;28;19977;-62
2022/07/09 11:10:21;;;;;;;;;;;;;;;24.24;70.07;98690.56;5118722;28;19924;-62
2022/07/09 11:12:48;;;;;;;;;;;;;;;24.17;70.45;98691.09;5100404;28;19981;-63
2022/07/09 11:15:17;;;;;;;;;;;;;;;23.80;71.76;98683.81;5120683;28;19925;-62
2022/07/09 11:17:44;;;;;;;;;;;;;;;23.93;72.67;98680.03;5121779;28;19923;-62
2022/07/09 11:20:12;;;;;;;;;;;;;;;23.89;72.68;98681.84;5121717;28;19952;-61
2022/07/09 11:22:39;;;;;;;;;;;;;;;23.98;72.04;98683.38;5130081;28;19950;-62
2022/07/09 11:25:05;;;;;;;;;;;;;;;24.11;71.63;98679.59;5119250;28;19924;-62
2022/07/09 11:27:32;;;;;;;;;;;;;;;24.12;71.44;98666.75;5121447;28;20311;-61
2022/07/09 11:30:02;;;;;;;;;;;;;;;24.05;71.11;98669.97;5121497;28;19927;-62
2022/07/09 11:32:30;;;;;;;;;;;;;;;23.90;72.44;98672.50;5118204;28;19924;-62
2022/07/09 11:34:56;;;;;;;;;;;;;;;23.90;72.61;98669.78;5118091;28;19924;-63
2022/07/09 11:37:25;;;;;;;;;;;;;;;23.99;71.64;98667.78;5109568;28;19935;-61
2022/07/09 11:39:52;;;;;;;;;;;;;;;23.98;71.64;98660.75;5109526;28;19940;-61
2022/07/09 11:42:18;;;;;;;;;;;;;;;23.90;72.47;98658.88;5109488;28;19924;-62
2022/07/09 11:44:54;;;;;;;;;;;;;;;23.70;73.27;98660.44;5109537;28;19924;-62
2022/07/09 11:47:22;;;;;;;;;;;;;;;23.88;72.52;98661.94;5109446;28;19924;-63
2022/07/09 11:49:50;;;;;;;;;;;;;;;23.76;73.03;98655.59;5109307;28;19924;-62
2022/07/09 11:52:18;;;;;;;;;;;;;;;23.72;73.66;98651.94;5133263;28;19920;-62
2022/07/09 11:54:59;;;;;;;;;;;;;;;23.77;73.25;98654.47;5117854;28;19992;-62
2022/07/09 11:57:27;;;;;;;;;;;;;;;23.64;75.46;98654.38;5108511;28;19943;-61
2022/07/09 11:59:54;;;;;;;;;;;;;;;23.90;75.47;98653.41;5109423;28;19928;-62
2022/07/09 12:02:24;;;;;;;;;;;;;;;24.09;74.58;98640.91;5109485;28;19943;-62
2022/07/09 12:04:51;;;;;;;;;;;;;;;24.21;73.90;98632.00;5109741;28;19935;-61
2022/07/09 12:07:17;;;;;;;;;;;;;;;23.90;75.86;98637.03;5109372;28;19939;-61
2022/07/09 12:09:44;;;;;;;;;;;;;;;24.12;75.19;98626.63;5109410;28;19928;-62
2022/07/09 12:12:10;;;;;;;;;;;;;;;24.18;73.90;98621.75;5109324;28;19924;-62
2022/07/09 12:14:38;;;;;;;;;;;;;;;24.30;73.55;98624.53;5111340;28;19951;-61
2022/07/09 12:17:04;;;;;;;;;;;;;;;24.33;72.95;98621.13;5113361;28;19974;-61
2022/07/09 12:19:30;;;;;;;;;;;;;;;24.37;72.99;98622.06;5112753;28;19924;-62
2022/07/09 12:21:57;;;;;;;;;;;;;;;24.13;72.95;98619.25;5136447;27;19927;-63
2022/07/09 12:24:23;;;;;;;;;;;;;;;23.95;74.47;98624.00;5121374;28;19924;-61
2022/07/09 12:26:49;;;;;;;;;;;;;;;24.16;72.86;98621.31;5121206;28;19959;-62
2022/07/09 12:29:16;;;;;;;;;;;;;;;24.10;72.37;98622.59;5123888;28;19920;-61
2022/07/09 12:31:44;;;;;;;;;;;;;;;23.93;73.95;98617.28;5124758;28;19927;-61
2022/07/09 12:34:10;;;;;;;;;;;;;;;23.81;74.27;98617.22;5122919;28;19952;-62
2022/07/09 12:36:38;;;;;;;;;;;;;;;23.89;73.90;98616.38;5120691;28;19943;-62
2022/07/09 12:39:04;;;;;;;;;;;;;;;23.75;73.40;98613.09;5103804;28;20400;-61
2022/07/09 12:41:30;;;;;;;;;;;;;;;23.83;73.24;98613.00;5124190;28;19924;-62
2022/07/09 12:43:57;;;;;;;;;;;;;;;23.67;73.35;98618.25;5124289;28;19928;-62
2022/07/09 12:46:23;;;;;;;;;;;;;;;23.76;73.17;98620.94;5112368;28;19924;-61